createdAt,value
2023-05-01T00:02:07.804Z,1.00
2023-05-01T00:04:34.521Z,0.30
2023-05-01T00:07:00.964Z,1.02
2023-05-01T00:09:27.547Z,0.50
2023-05-01T00:11:53.956Z,0.30
2023-05-01T00:14:20.464Z,0.40
2023-05-01T00:16:46.973Z,0.40
2023-05-01T00:19:18.349Z,0.40
2023-05-01T00:21:48.624Z,0.40
2023-05-01T00:24:17.012Z,0.40
2023-05-01T00:26:43.475Z,0.30
2023-05-01T00:29:09.896Z,0.30
2023-05-01T00:31:36.760Z,0.45
2023-05-01T00:34:05.100Z,0.77
2023-05-01T00:36:32.228Z,0.52
2023-05-01T00:38:58.595Z,0.60
2023-05-01T00:41:25.046Z,0.88
2023-05-01T00:43:51.494Z,0.85
2023-05-01T00:46:18.326Z,0.73
2023-05-01T00:48:44.756Z,0.50
2023-05-01T00:51:12.829Z,0.40
2023-05-01T00:53:40.488Z,0.47
2023-05-01T00:56:07.408Z,0.82
2023-05-01T00:58:34.237Z,0.60
2023-05-01T01:01:01.728Z,0.60
2023-05-01T01:03:28.122Z,0.40
2023-05-01T01:05:58.087Z,0.40
2023-05-01T01:08:33.607Z,0.47
2023-05-01T01:11:21.521Z,0.30
2023-05-01T01:14:03.635Z,0.30
2023-05-01T01:16:46.299Z,0.60
2023-05-01T01:19:29.997Z,0.30
2023-05-01T01:22:03.659Z,0.68
2023-05-01T01:24:36.102Z,0.50
2023-05-01T01:27:08.821Z,0.60
2023-05-01T01:30:03.037Z,0.50
2023-05-01T01:32:32.729Z,0.40
2023-05-01T01:35:03.419Z,0.65
2023-05-01T01:37:39.415Z,0.40
2023-05-01T01:40:07.830Z,0.30
2023-05-01T01:42:46.136Z,0.60
2023-05-01T01:45:15.362Z,0.20
2023-05-01T01:47:42.484Z,0.50
2023-05-01T01:50:10.327Z,0.73
2023-05-01T01:52:38.694Z,0.60
2023-05-01T01:55:12.553Z,0.93
2023-05-01T01:57:40.009Z,0.52
2023-05-01T02:00:08.981Z,0.50
2023-05-01T02:02:37.790Z,0.50
2023-05-01T02:05:05.449Z,0.60
2023-05-01T02:07:33.016Z,0.40
2023-05-01T02:10:01.250Z,0.50
2023-05-01T02:12:28.567Z,0.50
2023-05-01T02:14:55.896Z,0.50
2023-05-01T02:17:22.592Z,0.45
2023-05-01T02:19:53.236Z,0.65
2023-05-01T02:22:21.436Z,1.23
2023-05-01T02:24:48.692Z,0.47
2023-05-01T02:27:26.660Z,0.52
2023-05-01T02:29:53.739Z,0.43
2023-05-01T02:32:20.436Z,0.47
2023-05-01T02:34:46.832Z,0.50
2023-05-01T02:37:13.131Z,0.63
2023-05-01T02:39:39.780Z,1.33
2023-05-01T02:42:07.536Z,0.30
2023-05-01T02:44:43.137Z,0.17
2023-05-01T02:47:10.767Z,0.30
2023-05-01T02:49:37.993Z,0.20
2023-05-01T02:52:05.211Z,0.20
2023-05-01T02:54:31.860Z,0.40
2023-05-01T02:56:59.561Z,0.70
2023-05-01T02:59:25.937Z,0.30
2023-05-01T03:01:52.476Z,0.30
2023-05-01T03:04:19.043Z,0.55
2023-05-01T03:06:45.577Z,0.25
2023-05-01T03:09:12.001Z,0.40
2023-05-01T03:11:38.418Z,2.17
2023-05-01T03:14:04.714Z,3.35
2023-05-01T03:16:31.084Z,1.30
2023-05-01T03:18:57.472Z,0.98
2023-05-01T03:21:23.809Z,1.20
2023-05-01T03:23:50.466Z,1.55
2023-05-01T03:26:16.891Z,0.77
2023-05-01T03:28:43.222Z,0.70
2023-05-01T03:31:09.769Z,0.75
2023-05-01T03:33:36.745Z,0.50
2023-05-01T03:36:04.121Z,0.40
2023-05-01T03:38:30.876Z,0.82
2023-05-01T03:40:57.564Z,0.30
2023-05-01T03:43:24.375Z,0.50
2023-05-01T03:45:51.314Z,1.30
2023-05-01T03:48:18.388Z,1.23
2023-05-01T03:50:44.832Z,0.88
2023-05-01T03:53:11.218Z,0.57
2023-05-01T03:55:37.585Z,0.73
2023-05-01T03:58:03.975Z,1.25
2023-05-01T04:00:30.279Z,0.50
2023-05-01T04:02:57.062Z,0.45
2023-05-01T04:05:23.702Z,0.50
2023-05-01T04:07:50.014Z,0.40
2023-05-01T04:10:17.439Z,0.30
2023-05-01T04:12:43.794Z,0.38
2023-05-01T04:15:10.956Z,0.50
2023-05-01T04:17:37.385Z,0.30
2023-05-01T04:20:05.581Z,0.47
2023-05-01T04:22:32.367Z,0.50
2023-05-01T04:24:58.750Z,0.75
2023-05-01T04:27:25.270Z,0.93
2023-05-01T04:29:51.714Z,0.50
2023-05-01T04:32:18.067Z,0.30
2023-05-01T04:34:44.784Z,0.40
2023-05-01T04:37:11.122Z,0.70
2023-05-01T04:39:37.579Z,0.50
2023-05-01T04:42:04.531Z,0.80
2023-05-01T04:44:31.278Z,0.93
2023-05-01T04:46:57.682Z,0.75
2023-05-01T04:49:24.110Z,0.90
2023-05-01T04:51:50.834Z,0.40
2023-05-01T04:54:17.170Z,4.30
2023-05-01T04:56:43.511Z,1.30
2023-05-01T04:59:09.947Z,1.45
2023-05-01T05:01:36.347Z,1.20
2023-05-01T05:04:02.762Z,1.08
2023-05-01T05:06:29.538Z,1.15
2023-05-01T05:08:57.258Z,1.60
2023-05-01T05:11:23.608Z,1.80
2023-05-01T05:13:49.944Z,1.48
2023-05-01T05:16:16.474Z,1.30
2023-05-01T05:18:42.943Z,1.40
2023-05-01T05:21:10.756Z,1.42
2023-05-01T05:23:37.231Z,1.95
2023-05-01T05:26:03.743Z,2.40
2023-05-01T05:28:30.417Z,1.58
2023-05-01T05:30:57.158Z,1.00
2023-05-01T05:33:25.013Z,1.10
2023-05-01T05:35:52.345Z,1.30
2023-05-01T05:38:19.031Z,0.60
2023-05-01T05:40:45.362Z,0.90
2023-05-01T05:43:11.738Z,1.08
2023-05-01T05:45:38.296Z,1.20
2023-05-01T05:48:04.848Z,0.98
2023-05-01T05:50:31.158Z,0.98
2023-05-01T05:52:57.473Z,1.50
2023-05-01T05:55:23.777Z,1.00
2023-05-01T05:57:50.298Z,1.27
2023-05-01T06:00:17.272Z,1.17
2023-05-01T06:02:43.746Z,1.13
2023-05-01T06:05:10.758Z,1.20
2023-05-01T06:07:37.547Z,0.70
2023-05-01T06:10:06.679Z,0.80
2023-05-01T06:12:34.089Z,1.30
2023-05-01T06:15:03.087Z,1.67
2023-05-01T06:17:29.593Z,0.88
2023-05-01T06:19:56.514Z,1.40
2023-05-01T06:22:23.129Z,1.00
2023-05-01T06:24:49.558Z,1.08
2023-05-01T06:27:15.875Z,1.30
2023-05-01T06:29:42.176Z,2.75
2023-05-01T06:32:08.507Z,2.45
2023-05-01T06:34:34.955Z,2.95
2023-05-01T06:37:01.428Z,1.90
2023-05-01T06:39:27.783Z,3.22
2023-05-01T06:41:54.178Z,1.55
2023-05-01T06:44:20.623Z,3.42
2023-05-01T06:46:47.234Z,2.28
2023-05-01T06:49:13.559Z,4.95
2023-05-01T06:51:39.922Z,4.18
2023-05-01T06:54:06.607Z,1.65
2023-05-01T06:56:33.349Z,1.75
2023-05-01T06:58:59.929Z,3.47
2023-05-01T07:01:26.408Z,4.10
2023-05-01T07:03:52.861Z,3.17
2023-05-01T07:06:19.267Z,1.35
2023-05-01T07:08:45.685Z,1.80
2023-05-01T07:11:12.453Z,1.92
2023-05-01T07:13:38.773Z,1.85
2023-05-01T07:16:05.291Z,0.82
2023-05-01T07:18:31.698Z,1.00
2023-05-01T07:20:57.996Z,1.98
2023-05-01T07:23:25.538Z,1.02
2023-05-01T07:25:52.454Z,1.90
2023-05-01T07:28:20.283Z,0.95
2023-05-01T07:30:46.712Z,3.55
2023-05-01T07:33:13.083Z,1.30
2023-05-01T07:35:39.461Z,2.88
2023-05-01T07:38:05.806Z,2.08
2023-05-01T07:40:35.440Z,1.00
2023-05-01T07:43:02.184Z,0.75
2023-05-01T07:45:28.657Z,1.48
2023-05-01T07:47:55.730Z,2.45
2023-05-01T07:50:22.675Z,1.30
2023-05-01T07:52:49.038Z,1.00
2023-05-01T07:55:15.864Z,1.35
2023-05-01T07:57:42.164Z,0.95
2023-05-01T08:00:09.397Z,0.68
2023-05-01T08:02:35.821Z,1.17
2023-05-01T08:05:04.096Z,2.25
2023-05-01T08:07:30.881Z,1.63
2023-05-01T08:09:59.284Z,0.80
2023-05-01T08:12:27.022Z,0.70
2023-05-01T08:14:53.490Z,1.20
2023-05-01T08:17:20.325Z,0.80
2023-05-01T08:19:46.918Z,0.98
2023-05-01T08:22:13.903Z,1.00
2023-05-01T08:24:41.929Z,1.80
2023-05-01T08:27:08.942Z,1.70
2023-05-01T08:29:35.615Z,1.10
2023-05-01T08:32:02.117Z,0.90
2023-05-01T08:34:28.664Z,1.05
2023-05-01T08:36:54.992Z,0.82
2023-05-01T08:39:21.526Z,0.50
2023-05-01T08:41:48.652Z,0.60
2023-05-01T08:44:18.308Z,0.30
2023-05-01T08:46:53.514Z,0.77
2023-05-01T08:49:21.303Z,0.80
2023-05-01T08:51:50.652Z,1.10
2023-05-01T08:54:17.893Z,0.47
2023-05-01T08:56:46.550Z,0.70
2023-05-01T08:59:14.441Z,1.10
2023-05-01T09:01:41.698Z,1.50
2023-05-01T09:04:12.065Z,1.08
2023-05-01T09:06:38.671Z,1.00
2023-05-01T09:09:05.020Z,2.38
2023-05-01T09:11:31.701Z,2.65
2023-05-01T09:13:58.413Z,2.78
2023-05-01T09:16:24.944Z,3.25
2023-05-01T09:18:51.944Z,1.70
2023-05-01T09:21:18.604Z,2.05
2023-05-01T09:23:45.086Z,1.70
2023-05-01T09:26:11.978Z,1.70
2023-05-01T09:28:47.993Z,1.70
2023-05-01T09:31:24.804Z,2.15
2023-05-01T09:33:55.406Z,1.10
2023-05-01T09:36:22.734Z,1.65
2023-05-01T09:38:49.134Z,2.10
2023-05-01T09:41:15.857Z,1.60
2023-05-01T09:43:43.887Z,1.10
2023-05-01T09:46:10.878Z,1.00
2023-05-01T09:48:38.046Z,0.75
2023-05-01T09:51:19.911Z,0.88
2023-05-01T09:53:46.551Z,1.13
2023-05-01T09:56:12.868Z,2.17
2023-05-01T09:58:39.218Z,1.48
2023-05-01T10:01:05.867Z,1.50
2023-05-01T10:03:33.951Z,1.48
2023-05-01T10:06:02.811Z,1.00
2023-05-01T10:08:48.434Z,0.68
2023-05-01T10:11:14.867Z,1.85
2023-05-01T10:13:41.704Z,2.22
2023-05-01T10:16:16.328Z,3.17
2023-05-01T10:18:43.142Z,1.10
2023-05-01T10:21:10.852Z,0.75
2023-05-01T10:23:37.282Z,0.57
2023-05-01T10:26:05.304Z,0.30
2023-05-01T10:28:33.367Z,0.90
2023-05-01T10:31:00.615Z,0.80
2023-05-01T10:33:27.013Z,0.57
2023-05-01T10:35:56.427Z,0.60
2023-05-01T10:38:26.057Z,0.60
2023-05-01T10:40:52.496Z,0.50
2023-05-01T10:43:18.914Z,0.60
2023-05-01T10:45:45.885Z,0.50
2023-05-01T10:48:12.536Z,0.60
2023-05-01T10:50:59.302Z,0.73
2023-05-01T10:53:25.651Z,0.40
2023-05-01T10:55:52.055Z,0.50
2023-05-01T10:58:36.688Z,0.70
2023-05-01T11:01:21.880Z,0.40
2023-05-01T11:03:48.404Z,0.82
2023-05-01T11:06:14.963Z,0.40
2023-05-01T11:08:41.402Z,0.50
2023-05-01T11:11:37.114Z,0.95
2023-05-01T11:14:11.156Z,0.30
2023-05-01T11:16:41.762Z,0.30
2023-05-01T11:19:08.699Z,0.40
2023-05-01T11:21:36.661Z,1.38
2023-05-01T11:24:04.116Z,0.60
2023-05-01T11:26:32.413Z,0.40
2023-05-01T11:28:59.646Z,0.30
2023-05-01T11:31:27.133Z,0.70
2023-05-01T11:33:56.056Z,0.30
2023-05-01T11:36:22.440Z,0.10
2023-05-01T11:38:53.583Z,0.10
2023-05-01T11:41:23.460Z,0.20
2023-05-01T11:43:51.585Z,0.25
2023-05-01T11:46:28.042Z,0.22
2023-05-01T11:48:54.847Z,0.30
2023-05-01T11:51:21.279Z,1.05
2023-05-01T11:54:07.162Z,0.40
2023-05-01T11:56:34.168Z,0.20
2023-05-01T11:59:08.930Z,0.40
2023-05-01T12:01:36.095Z,0.30
2023-05-01T12:04:03.327Z,0.93
2023-05-01T12:06:43.894Z,0.40
2023-05-01T12:09:17.504Z,0.30
2023-05-01T12:11:43.977Z,0.30
2023-05-01T12:14:10.943Z,0.28
2023-05-01T12:16:37.861Z,0.20
2023-05-01T12:19:04.532Z,0.52
2023-05-01T12:21:32.237Z,0.30
2023-05-01T12:24:11.481Z,0.20
2023-05-01T12:26:38.274Z,0.30
2023-05-01T12:29:05.814Z,0.30
2023-05-01T12:31:32.369Z,0.40
2023-05-01T12:34:01.922Z,0.30
2023-05-01T12:36:29.443Z,0.30
2023-05-01T12:38:57.902Z,0.22
2023-05-01T12:41:41.484Z,0.20
2023-05-01T12:44:20.290Z,0.20
2023-05-01T12:46:53.695Z,0.17
2023-05-01T12:49:20.556Z,0.20
2023-05-01T12:51:48.359Z,0.30
2023-05-01T12:54:38.242Z,0.13
2023-05-01T12:57:06.189Z,0.20
2023-05-01T12:59:32.704Z,0.10
2023-05-01T13:02:00.503Z,0.10
2023-05-01T13:04:27.876Z,0.20
2023-05-01T13:06:57.456Z,0.28
2023-05-01T13:09:24.235Z,0.30
2023-05-01T13:11:57.424Z,0.40
2023-05-01T13:14:23.969Z,1.50
2023-05-01T13:16:51.024Z,1.58
2023-05-01T13:19:30.376Z,1.35
2023-05-01T13:21:57.996Z,1.40
2023-05-01T13:24:24.986Z,1.77
2023-05-01T13:27:02.388Z,2.67
2023-05-01T13:29:31.463Z,2.45
2023-05-01T13:31:58.031Z,1.90
2023-05-01T13:34:27.573Z,2.60
2023-05-01T13:36:55.281Z,4.85
2023-05-01T13:39:22.113Z,2.53
2023-05-01T13:41:48.858Z,2.13
2023-05-01T13:44:16.262Z,1.38
2023-05-01T13:46:42.687Z,1.55
2023-05-01T13:49:09.216Z,2.58
2023-05-01T13:51:42.969Z,1.50
2023-05-01T13:54:10.068Z,1.50
2023-05-01T13:56:40.533Z,2.22
2023-05-01T13:59:07.716Z,3.30
2023-05-01T14:01:47.859Z,1.95
2023-05-01T14:04:15.782Z,1.73
2023-05-01T14:06:43.733Z,1.25
2023-05-01T14:09:10.492Z,1.98
2023-05-01T14:11:46.924Z,1.85
2023-05-01T14:14:16.627Z,2.65
2023-05-01T14:16:46.472Z,1.63
2023-05-01T14:19:14.760Z,2.58
2023-05-01T14:21:44.138Z,1.63
2023-05-01T14:24:10.521Z,2.00
2023-05-01T14:26:38.902Z,1.90
2023-05-01T14:29:05.221Z,1.70
2023-05-01T14:31:31.855Z,2.85
2023-05-01T14:33:59.393Z,1.77
2023-05-01T14:36:26.840Z,2.17
2023-05-01T14:38:55.815Z,1.77
2023-05-01T14:41:22.169Z,1.40
2023-05-01T14:43:53.149Z,1.10
2023-05-01T14:46:27.514Z,0.90
2023-05-01T14:48:54.080Z,1.02
2023-05-01T14:51:20.602Z,1.15
2023-05-01T14:53:47.287Z,0.65
2023-05-01T14:56:13.656Z,0.80
2023-05-01T14:58:40.000Z,1.75
2023-05-01T15:01:06.445Z,2.28
2023-05-01T15:03:36.111Z,1.63
2023-05-01T15:06:04.270Z,2.00
2023-05-01T15:08:32.421Z,1.00
2023-05-01T15:10:58.980Z,1.42
2023-05-01T15:13:25.677Z,1.02
2023-05-01T15:15:52.810Z,1.15
2023-05-01T15:18:19.307Z,0.68
2023-05-01T15:20:46.305Z,1.10
2023-05-01T15:23:12.679Z,1.13
2023-05-01T15:25:39.090Z,0.90
2023-05-01T15:28:05.511Z,0.60
2023-05-01T15:30:32.258Z,0.77
2023-05-01T15:32:58.861Z,1.15
2023-05-01T15:35:26.232Z,0.73
2023-05-01T15:37:53.452Z,1.63
2023-05-01T15:40:20.030Z,0.70
2023-05-01T15:42:48.168Z,0.60
2023-05-01T15:45:14.711Z,0.63
2023-05-01T15:47:41.202Z,0.47
2023-05-01T15:50:10.795Z,0.30
2023-05-01T15:52:37.569Z,0.50
2023-05-01T15:55:04.252Z,0.68
2023-05-01T15:57:32.475Z,1.75
2023-05-01T15:59:59.237Z,0.50
2023-05-01T16:02:29.385Z,0.45
2023-05-01T16:04:55.727Z,0.50
2023-05-01T16:07:22.082Z,0.80
2023-05-01T16:09:49.386Z,0.73
2023-05-01T16:12:15.869Z,0.70
2023-05-01T16:14:42.282Z,0.70
2023-05-01T16:17:08.887Z,0.82
2023-05-01T16:19:38.270Z,0.50
2023-05-01T16:22:05.660Z,0.60
2023-05-01T16:24:36.184Z,0.55
2023-05-01T16:27:02.549Z,0.50
2023-05-01T16:29:28.964Z,0.50
2023-05-01T16:31:55.455Z,0.43
2023-05-01T16:34:23.701Z,0.75
2023-05-01T16:36:49.973Z,0.50
2023-05-01T16:39:19.372Z,0.38
2023-05-01T16:41:46.844Z,0.77
2023-05-01T16:44:13.491Z,1.17
2023-05-01T16:46:42.043Z,0.75
2023-05-01T16:49:11.954Z,0.70
2023-05-01T16:51:38.596Z,0.93
2023-05-01T16:54:05.182Z,0.80
2023-05-01T16:56:31.588Z,1.38
2023-05-01T16:58:58.652Z,0.80
2023-05-01T17:01:25.276Z,0.68
2023-05-01T17:03:51.963Z,0.70
2023-05-01T17:06:18.303Z,0.70
2023-05-01T17:08:44.837Z,0.75
2023-05-01T17:11:11.359Z,1.02
2023-05-01T17:13:37.669Z,1.00
2023-05-01T17:16:04.264Z,1.20
2023-05-01T17:18:30.933Z,1.45
2023-05-01T17:20:57.282Z,1.40
2023-05-01T17:23:28.076Z,1.30
2023-05-01T17:25:54.982Z,0.77
2023-05-01T17:28:21.728Z,0.80
2023-05-01T17:30:48.240Z,0.88
2023-05-01T17:33:15.218Z,1.00
2023-05-01T17:35:41.887Z,0.70
2023-05-01T17:38:08.362Z,0.85
2023-05-01T17:40:34.768Z,1.85
2023-05-01T17:43:01.346Z,0.82
2023-05-01T17:45:27.769Z,2.83
2023-05-01T17:47:54.304Z,0.88
2023-05-01T17:50:21.047Z,1.42
2023-05-01T17:52:47.780Z,1.15
2023-05-01T17:55:18.430Z,0.88
2023-05-01T17:57:45.670Z,0.98
2023-05-01T18:00:12.363Z,0.93
2023-05-01T18:02:39.449Z,0.60
2023-05-01T18:05:06.569Z,0.63
2023-05-01T18:07:32.930Z,0.70
2023-05-01T18:09:59.581Z,0.85
2023-05-01T18:12:26.262Z,0.80
2023-05-01T18:14:53.605Z,0.70
2023-05-01T18:17:21.714Z,0.60
2023-05-01T18:19:49.277Z,0.70
2023-05-01T18:22:16.416Z,1.42
2023-05-01T18:24:42.818Z,0.55
2023-05-01T18:27:09.572Z,1.10
2023-05-01T18:29:36.611Z,0.82
2023-05-01T18:32:03.747Z,0.93
2023-05-01T18:34:30.505Z,1.00
2023-05-01T18:36:56.887Z,1.13
2023-05-01T18:39:23.367Z,0.73
2023-05-01T18:41:50.205Z,0.80
2023-05-01T18:44:17.309Z,0.68
2023-05-01T18:46:44.210Z,0.60
2023-05-01T18:49:11.133Z,0.40
2023-05-01T18:51:37.627Z,0.65
2023-05-01T18:54:05.543Z,0.75
2023-05-01T18:56:31.911Z,1.00
2023-05-01T18:58:58.405Z,0.80
2023-05-01T19:01:25.251Z,0.80
2023-05-01T19:03:51.843Z,0.88
2023-05-01T19:06:18.313Z,0.90
2023-05-01T19:08:44.650Z,0.60
2023-05-01T19:11:11.236Z,0.77
2023-05-01T19:13:37.568Z,0.82
2023-05-01T19:16:04.067Z,1.05
2023-05-01T19:18:30.614Z,0.55
2023-05-01T19:20:57.038Z,0.70
2023-05-01T19:23:23.519Z,0.80
2023-05-01T19:25:49.908Z,0.60
2023-05-01T19:28:16.282Z,0.80
2023-05-01T19:30:42.619Z,0.57
2023-05-01T19:33:09.113Z,0.52
2023-05-01T19:35:35.864Z,0.50
2023-05-01T19:38:02.223Z,0.73
2023-05-01T19:40:28.718Z,0.40
2023-05-01T19:42:55.301Z,0.82
2023-05-01T19:45:21.689Z,0.45
2023-05-01T19:47:48.204Z,0.70
2023-05-01T19:50:16.682Z,0.60
2023-05-01T19:52:42.999Z,0.40
2023-05-01T19:55:09.548Z,0.40
2023-05-01T19:57:35.920Z,0.40
2023-05-01T20:00:02.650Z,0.38
2023-05-01T20:02:29.582Z,0.20
2023-05-01T20:04:56.145Z,0.30
2023-05-01T20:07:22.701Z,0.38
2023-05-01T20:09:49.036Z,0.60
2023-05-01T20:12:15.757Z,0.75
2023-05-01T20:14:42.182Z,0.75
2023-05-01T20:17:09.374Z,0.50
2023-05-01T20:19:36.830Z,0.55
2023-05-01T20:22:04.666Z,1.05
2023-05-01T20:24:31.495Z,0.40
2023-05-01T20:26:59.614Z,0.57
2023-05-01T20:29:26.999Z,0.70
2023-05-01T20:31:53.376Z,0.50
2023-05-01T20:34:19.940Z,0.40
2023-05-01T20:36:46.426Z,0.47
2023-05-01T20:39:13.007Z,0.50
2023-05-01T20:41:39.309Z,0.60
2023-05-01T20:44:06.857Z,0.70
2023-05-01T20:46:33.217Z,0.80
2023-05-01T20:48:59.593Z,0.95
2023-05-01T20:51:27.410Z,0.70
2023-05-01T20:53:53.795Z,0.70
2023-05-01T20:56:20.138Z,0.82
2023-05-01T20:58:46.607Z,0.60
2023-05-01T21:01:12.999Z,0.85
2023-05-01T21:03:40.464Z,0.85
2023-05-01T21:06:07.121Z,0.65
2023-05-01T21:08:33.527Z,0.50
2023-05-01T21:11:00.778Z,0.70
2023-05-01T21:13:27.428Z,0.47
2023-05-01T21:15:54.219Z,0.60
2023-05-01T21:18:21.125Z,0.60
2023-05-01T21:20:48.750Z,0.43
2023-05-01T21:23:15.785Z,0.50
2023-05-01T21:25:42.778Z,0.60
2023-05-01T21:28:12.892Z,0.95
2023-05-01T21:30:39.485Z,0.80
2023-05-01T21:33:07.077Z,0.57
2023-05-01T21:35:33.940Z,0.77
2023-05-01T21:38:00.747Z,0.40
2023-05-01T21:40:27.305Z,0.57
2023-05-01T21:42:54.460Z,0.70
2023-05-01T21:45:21.025Z,0.82
2023-05-01T21:47:51.023Z,1.00
2023-05-01T21:50:18.965Z,1.40
2023-05-01T21:52:46.614Z,0.82
2023-05-01T21:55:31.356Z,0.80
2023-05-01T21:57:58.088Z,0.93
2023-05-01T22:00:24.691Z,1.23
2023-05-01T22:02:51.382Z,0.90
2023-05-01T22:05:18.508Z,0.90
2023-05-01T22:07:46.237Z,0.88
2023-05-01T22:10:17.204Z,1.23
2023-05-01T22:12:44.629Z,1.33
2023-05-01T22:15:11.882Z,0.80
2023-05-01T22:17:38.940Z,1.90
2023-05-01T22:20:07.104Z,1.33
2023-05-01T22:22:34.400Z,1.90
2023-05-01T22:25:00.689Z,1.67
2023-05-01T22:27:27.001Z,2.15
2023-05-01T22:29:53.346Z,1.75
2023-05-01T22:32:19.751Z,1.70
2023-05-01T22:34:46.208Z,1.58
2023-05-01T22:37:12.652Z,1.70
2023-05-01T22:39:39.011Z,2.03
2023-05-01T22:42:05.462Z,2.08
2023-05-01T22:44:32.224Z,1.67
2023-05-01T22:47:01.660Z,1.80
2023-05-01T22:49:28.675Z,1.70
2023-05-01T22:51:55.629Z,1.50
2023-05-01T22:54:22.276Z,1.15
2023-05-01T22:56:49.965Z,0.70
2023-05-01T22:59:16.928Z,1.30
2023-05-01T23:01:43.679Z,0.98
2023-05-01T23:04:10.370Z,1.83
2023-05-01T23:06:36.872Z,1.40
2023-05-01T23:09:03.559Z,1.55
2023-05-01T23:11:33.270Z,0.88
2023-05-01T23:14:00.095Z,1.15
2023-05-01T23:16:26.817Z,1.25
2023-05-01T23:18:53.302Z,1.10
2023-05-01T23:21:20.134Z,0.95
2023-05-01T23:23:46.549Z,1.02
2023-05-01T23:26:22.585Z,1.20
2023-05-01T23:28:48.987Z,1.63
2023-05-01T23:31:23.007Z,1.85
2023-05-01T23:33:49.402Z,2.50
2023-05-01T23:36:15.816Z,1.98
2023-05-01T23:38:42.248Z,1.73
2023-05-01T23:41:08.965Z,1.27
2023-05-01T23:43:36.176Z,1.27
2023-05-01T23:46:02.867Z,2.05
2023-05-01T23:48:29.245Z,2.55
2023-05-01T23:50:55.767Z,2.97
2023-05-01T23:53:22.280Z,2.72
2023-05-01T23:55:48.595Z,3.13
2023-05-01T23:58:14.955Z,2.50
